createdAt,value
2023-11-23T00:00:17.052Z,2.20
2023-11-23T00:01:20.112Z,1.60
2023-11-23T00:02:22.484Z,3.38
2023-11-23T00:03:24.910Z,2.28
2023-11-23T00:04:27.394Z,1.80
2023-11-23T00:05:30.354Z,1.65
2023-11-23T00:06:32.612Z,1.65
2023-11-23T00:07:35.186Z,1.60
2023-11-23T00:08:37.539Z,1.85
2023-11-23T00:09:40.915Z,2.47
2023-11-23T00:10:43.246Z,1.95
2023-11-23T00:11:45.564Z,2.20
2023-11-23T00:12:48.010Z,1.88
2023-11-23T00:13:51.009Z,2.33
2023-11-23T00:14:54.043Z,1.65
2023-11-23T00:15:56.335Z,2.17
2023-11-23T00:16:58.815Z,1.83
2023-11-23T00:18:01.299Z,2.00
2023-11-23T00:19:03.727Z,1.88
2023-11-23T00:20:08.704Z,1.75
2023-11-23T00:21:11.161Z,1.60
2023-11-23T00:22:13.523Z,1.50
2023-11-23T00:23:15.807Z,1.83
2023-11-23T00:24:19.066Z,2.40
2023-11-23T00:25:22.095Z,2.42
2023-11-23T00:26:25.132Z,1.50
2023-11-23T00:27:35.728Z,1.90
2023-11-23T00:28:38.010Z,1.50
2023-11-23T00:29:40.281Z,1.67
2023-11-23T00:30:42.611Z,2.47
2023-11-23T00:31:44.851Z,3.45
2023-11-23T00:32:47.246Z,1.80
2023-11-23T00:33:50.240Z,1.75
2023-11-23T00:34:52.771Z,2.55
2023-11-23T00:35:55.707Z,1.80
2023-11-23T00:36:58.155Z,1.65
2023-11-23T00:38:00.767Z,1.65
2023-11-23T00:39:03.737Z,1.90
2023-11-23T00:40:07.222Z,1.50
2023-11-23T00:41:09.511Z,3.22
2023-11-23T00:42:11.994Z,1.60
2023-11-23T00:43:14.388Z,1.40
2023-11-23T00:44:17.196Z,3.15
2023-11-23T00:45:19.608Z,1.60
2023-11-23T00:46:21.976Z,1.80
2023-11-23T00:47:24.418Z,1.70
2023-11-23T00:48:28.782Z,1.80
2023-11-23T00:49:31.313Z,2.65
2023-11-23T00:50:34.466Z,1.60
2023-11-23T00:51:38.258Z,1.75
2023-11-23T00:52:41.609Z,1.52
2023-11-23T00:53:46.332Z,1.80
2023-11-23T00:54:48.962Z,2.33
2023-11-23T00:55:51.487Z,1.60
2023-11-23T00:56:53.782Z,1.50
2023-11-23T00:57:56.095Z,1.90
2023-11-23T00:58:58.369Z,1.58
2023-11-23T01:00:01.724Z,1.77
2023-11-23T01:01:04.300Z,1.80
2023-11-23T01:02:07.081Z,1.73
2023-11-23T01:03:09.546Z,1.70
2023-11-23T01:04:12.994Z,1.60
2023-11-23T01:05:16.784Z,1.52
2023-11-23T01:06:19.083Z,3.17
2023-11-23T01:07:21.383Z,2.33
2023-11-23T01:08:23.661Z,2.83
2023-11-23T01:09:25.961Z,1.50
2023-11-23T01:10:28.271Z,1.40
2023-11-23T01:11:30.572Z,2.28
2023-11-23T01:12:33.420Z,1.38
2023-11-23T01:13:35.714Z,2.10
2023-11-23T01:14:38.116Z,2.10
2023-11-23T01:15:40.803Z,1.80
2023-11-23T01:16:43.168Z,1.70
2023-11-23T01:17:45.710Z,1.60
2023-11-23T01:18:48.037Z,1.60
2023-11-23T01:19:50.566Z,1.65
2023-11-23T01:20:52.928Z,1.42
2023-11-23T01:21:55.285Z,2.45
2023-11-23T01:22:57.944Z,1.80
2023-11-23T01:24:00.552Z,1.38
2023-11-23T01:25:03.078Z,1.60
2023-11-23T01:26:05.505Z,1.60
2023-11-23T01:27:07.902Z,1.70
2023-11-23T01:28:10.624Z,1.48
2023-11-23T01:29:13.408Z,2.15
2023-11-23T01:30:16.053Z,1.73
2023-11-23T01:31:18.398Z,2.55
2023-11-23T01:32:20.675Z,1.65
2023-11-23T01:33:24.631Z,1.50
2023-11-23T01:34:28.404Z,1.70
2023-11-23T01:35:30.703Z,2.20
2023-11-23T01:36:33.108Z,1.70
2023-11-23T01:37:38.537Z,1.63
2023-11-23T01:38:40.786Z,1.77
2023-11-23T01:39:43.106Z,1.38
2023-11-23T01:40:45.310Z,1.50
2023-11-23T01:41:47.690Z,1.52
2023-11-23T01:42:50.208Z,1.60
2023-11-23T01:43:53.057Z,1.60
2023-11-23T01:44:55.685Z,1.50
2023-11-23T01:45:58.234Z,1.50
2023-11-23T01:47:00.881Z,2.67
2023-11-23T01:48:04.658Z,1.60
2023-11-23T01:49:08.396Z,1.40
2023-11-23T01:50:14.385Z,1.42
2023-11-23T01:51:18.496Z,2.85
2023-11-23T01:52:20.838Z,1.30
2023-11-23T01:53:23.528Z,2.35
2023-11-23T01:54:25.859Z,1.40
2023-11-23T01:55:28.526Z,1.60
2023-11-23T01:56:31.650Z,2.27
2023-11-23T01:57:37.922Z,1.58
2023-11-23T01:58:40.286Z,1.63
2023-11-23T01:59:42.920Z,1.50
2023-11-23T02:00:46.828Z,1.85
2023-11-23T02:01:49.262Z,1.40
2023-11-23T02:02:53.156Z,1.80
2023-11-23T02:03:56.445Z,1.65
2023-11-23T02:05:06.024Z,1.50
2023-11-23T02:06:08.633Z,1.60
2023-11-23T02:07:10.991Z,1.70
2023-11-23T02:08:13.377Z,1.33
2023-11-23T02:09:15.901Z,1.60
2023-11-23T02:10:18.223Z,1.48
2023-11-23T02:11:20.587Z,4.93
2023-11-23T02:12:24.302Z,1.50
2023-11-23T02:13:26.881Z,1.60
2023-11-23T02:14:32.633Z,1.40
2023-11-23T02:15:38.755Z,1.30
2023-11-23T02:16:41.601Z,1.40
2023-11-23T02:17:43.898Z,1.30
2023-11-23T02:18:46.354Z,1.48
2023-11-23T02:19:50.136Z,1.30
2023-11-23T02:20:52.880Z,1.30
2023-11-23T02:21:55.359Z,1.60
2023-11-23T02:22:57.760Z,1.30
2023-11-23T02:24:00.161Z,1.65
2023-11-23T02:25:02.470Z,1.60
2023-11-23T02:26:04.840Z,2.35
2023-11-23T02:27:11.357Z,1.50
2023-11-23T02:28:14.115Z,1.50
2023-11-23T02:29:16.493Z,1.48
2023-11-23T02:30:18.883Z,1.65
2023-11-23T02:31:21.233Z,1.60
2023-11-23T02:32:26.939Z,1.30
2023-11-23T02:33:29.291Z,2.80
2023-11-23T02:34:31.591Z,1.60
2023-11-23T02:35:33.798Z,1.40
2023-11-23T02:36:36.925Z,1.40
2023-11-23T02:37:39.203Z,1.30
2023-11-23T02:38:42.151Z,2.10
2023-11-23T02:39:45.075Z,1.35
2023-11-23T02:40:47.449Z,1.30
2023-11-23T02:41:49.691Z,1.50
2023-11-23T02:42:52.041Z,1.60
2023-11-23T02:43:54.326Z,1.38
2023-11-23T02:44:56.653Z,2.40
2023-11-23T02:45:59.100Z,1.30
2023-11-23T02:47:02.423Z,2.15
2023-11-23T02:48:08.582Z,1.30
2023-11-23T02:49:10.875Z,1.40
2023-11-23T02:50:13.131Z,2.30
2023-11-23T02:51:16.133Z,1.30
2023-11-23T02:52:18.508Z,3.60
2023-11-23T02:53:33.306Z,1.45
2023-11-23T02:54:37.191Z,1.60
2023-11-23T02:55:39.413Z,2.25
2023-11-23T02:56:41.895Z,1.40
2023-11-23T02:57:44.420Z,1.42
2023-11-23T02:58:48.187Z,1.48
2023-11-23T02:59:52.029Z,1.47
2023-11-23T03:00:54.407Z,1.77
2023-11-23T03:01:58.040Z,1.50
2023-11-23T03:03:00.502Z,1.65
2023-11-23T03:04:02.950Z,1.40
2023-11-23T03:05:06.216Z,1.30
2023-11-23T03:06:09.110Z,1.60
2023-11-23T03:07:11.452Z,1.83
2023-11-23T03:08:13.749Z,1.67
2023-11-23T03:09:16.082Z,2.30
2023-11-23T03:10:18.542Z,1.97
2023-11-23T03:11:27.529Z,1.52
2023-11-23T03:12:30.377Z,1.50
2023-11-23T03:13:32.688Z,1.65
2023-11-23T03:14:35.958Z,1.30
2023-11-23T03:15:38.232Z,2.22
2023-11-23T03:16:40.512Z,1.30
2023-11-23T03:17:43.095Z,1.50
2023-11-23T03:18:46.211Z,1.48
2023-11-23T03:19:48.942Z,2.05
2023-11-23T03:20:51.269Z,1.57
2023-11-23T03:21:53.716Z,1.40
2023-11-23T03:22:56.799Z,2.50
2023-11-23T03:23:59.104Z,1.75
2023-11-23T03:25:01.428Z,1.40
2023-11-23T03:26:05.494Z,1.55
2023-11-23T03:27:10.720Z,2.15
2023-11-23T03:28:14.088Z,1.40
2023-11-23T03:29:16.517Z,1.50
2023-11-23T03:30:19.211Z,1.95
2023-11-23T03:31:22.767Z,1.40
2023-11-23T03:32:26.762Z,2.22
2023-11-23T03:33:29.276Z,1.50
2023-11-23T03:35:05.456Z,1.48
2023-11-23T03:36:08.510Z,1.40
2023-11-23T03:37:10.787Z,2.50
2023-11-23T03:38:13.182Z,1.55
2023-11-23T03:39:15.636Z,2.47
2023-11-23T03:40:18.054Z,1.35
2023-11-23T03:41:20.333Z,1.45
2023-11-23T03:42:22.622Z,2.77
2023-11-23T03:43:25.614Z,1.48
2023-11-23T03:44:28.151Z,2.83
2023-11-23T03:45:30.488Z,1.50
2023-11-23T03:46:32.794Z,1.65
2023-11-23T03:47:35.087Z,1.70
2023-11-23T03:48:37.399Z,1.98
2023-11-23T03:49:40.540Z,1.50
2023-11-23T03:50:42.786Z,1.90
2023-11-23T03:51:45.609Z,1.58
2023-11-23T03:52:47.900Z,1.63
2023-11-23T03:53:50.166Z,1.40
2023-11-23T03:54:52.612Z,1.67
2023-11-23T03:55:54.929Z,1.67
2023-11-23T03:56:57.315Z,2.67
2023-11-23T03:57:59.591Z,3.47
2023-11-23T03:59:01.804Z,1.63
2023-11-23T04:00:04.638Z,1.52
2023-11-23T04:01:08.337Z,1.40
2023-11-23T04:02:10.732Z,1.35
2023-11-23T04:03:13.170Z,1.30
2023-11-23T04:04:15.634Z,1.58
2023-11-23T04:05:21.736Z,1.70
2023-11-23T04:06:24.124Z,1.30
2023-11-23T04:07:26.458Z,1.60
2023-11-23T04:08:28.795Z,2.47
2023-11-23T04:09:31.545Z,2.10
2023-11-23T04:10:33.883Z,1.48
2023-11-23T04:11:36.489Z,1.33
2023-11-23T04:12:38.750Z,8.80
2023-11-23T04:13:41.114Z,1.60
2023-11-23T04:14:43.508Z,1.63
2023-11-23T04:15:47.152Z,1.40
2023-11-23T04:16:49.483Z,2.42
2023-11-23T04:17:51.879Z,1.70
2023-11-23T04:18:54.284Z,1.38
2023-11-23T04:19:56.640Z,1.75
2023-11-23T04:20:59.123Z,1.33
2023-11-23T04:22:01.442Z,1.35
2023-11-23T04:23:03.759Z,1.52
2023-11-23T04:24:06.399Z,1.77
2023-11-23T04:25:09.794Z,1.50
2023-11-23T04:26:12.091Z,1.50
2023-11-23T04:27:14.449Z,1.40
2023-11-23T04:28:16.762Z,1.50
2023-11-23T04:29:19.342Z,1.50
2023-11-23T04:30:22.121Z,1.67
2023-11-23T04:31:27.668Z,1.38
2023-11-23T04:32:30.025Z,1.50
2023-11-23T04:33:33.227Z,1.70
2023-11-23T04:34:36.070Z,1.80
2023-11-23T04:35:38.419Z,3.05
2023-11-23T04:36:40.932Z,2.45
2023-11-23T04:37:43.407Z,1.50
2023-11-23T04:38:45.851Z,2.47
2023-11-23T04:39:48.157Z,1.65
2023-11-23T04:40:50.477Z,1.70
2023-11-23T04:41:52.855Z,1.58
2023-11-23T04:42:55.228Z,1.73
2023-11-23T04:43:57.606Z,1.80
2023-11-23T04:44:59.878Z,1.93
2023-11-23T04:46:02.553Z,1.70
2023-11-23T04:47:05.125Z,3.53
2023-11-23T04:48:08.340Z,2.25
2023-11-23T04:49:10.795Z,3.08
2023-11-23T04:50:13.110Z,1.50
2023-11-23T04:51:18.771Z,1.52
2023-11-23T04:52:21.089Z,2.00
2023-11-23T04:53:23.466Z,1.90
2023-11-23T04:54:25.837Z,2.20
2023-11-23T04:55:29.486Z,3.47
2023-11-23T04:56:32.363Z,1.90
2023-11-23T04:57:34.702Z,2.33
2023-11-23T04:58:37.064Z,2.58
2023-11-23T04:59:39.374Z,1.90
2023-11-23T05:00:41.616Z,2.17
2023-11-23T05:01:43.983Z,3.20
2023-11-23T05:02:46.252Z,2.78
2023-11-23T05:03:48.737Z,2.50
2023-11-23T05:04:51.929Z,7.88
2023-11-23T05:05:54.274Z,2.03
2023-11-23T05:06:59.594Z,1.75
2023-11-23T05:08:01.867Z,2.40
2023-11-23T05:09:04.723Z,2.78
2023-11-23T05:10:11.644Z,2.08
2023-11-23T05:11:14.212Z,2.28
2023-11-23T05:12:16.680Z,2.80
2023-11-23T05:13:18.959Z,3.25
2023-11-23T05:14:21.156Z,2.78
2023-11-23T05:15:23.689Z,2.65
2023-11-23T05:16:26.097Z,2.23
2023-11-23T05:17:28.506Z,2.53
2023-11-23T05:18:30.911Z,1.90
2023-11-23T05:19:40.039Z,2.42
2023-11-23T05:20:45.381Z,2.28
2023-11-23T05:21:48.438Z,2.50
2023-11-23T05:22:50.694Z,2.40
2023-11-23T05:23:53.171Z,2.58
2023-11-23T05:24:55.481Z,2.30
2023-11-23T05:25:57.827Z,2.45
2023-11-23T05:27:00.166Z,2.40
2023-11-23T05:28:02.676Z,1.95
2023-11-23T05:29:05.070Z,2.40
2023-11-23T05:30:08.210Z,5.68
2023-11-23T05:31:10.893Z,2.25
2023-11-23T05:32:13.219Z,3.03
2023-11-23T05:33:16.218Z,2.75
2023-11-23T05:34:19.043Z,2.13
2023-11-23T05:35:21.392Z,4.55
2023-11-23T05:36:23.873Z,2.70
2023-11-23T05:37:26.912Z,2.30
2023-11-23T05:38:29.285Z,1.92
2023-11-23T05:39:31.625Z,2.15
2023-11-23T05:40:33.960Z,1.83
2023-11-23T05:41:36.178Z,2.60
2023-11-23T05:42:38.636Z,2.53
2023-11-23T05:43:42.640Z,2.50
2023-11-23T05:44:46.385Z,2.15
2023-11-23T05:45:49.361Z,2.50
2023-11-23T05:46:53.427Z,2.72
2023-11-23T05:47:56.596Z,2.40
2023-11-23T05:48:58.939Z,2.40
2023-11-23T05:50:03.019Z,2.33
2023-11-23T05:51:05.567Z,2.30
2023-11-23T05:52:09.015Z,5.72
2023-11-23T05:53:11.411Z,2.70
2023-11-23T05:54:13.626Z,3.10
2023-11-23T05:55:16.765Z,3.13
2023-11-23T05:56:19.075Z,2.70
2023-11-23T05:57:21.715Z,3.10
2023-11-23T05:58:24.060Z,6.87
2023-11-23T05:59:26.391Z,2.60
2023-11-23T06:00:28.886Z,3.25
2023-11-23T06:01:31.577Z,2.65
2023-11-23T06:02:33.971Z,2.40
2023-11-23T06:03:36.361Z,2.63
2023-11-23T06:04:39.451Z,2.45
2023-11-23T06:05:42.003Z,2.67
2023-11-23T06:06:44.670Z,3.72
2023-11-23T06:07:47.242Z,2.70
2023-11-23T06:08:50.747Z,3.57
2023-11-23T06:09:53.099Z,3.15
2023-11-23T06:10:55.358Z,2.90
2023-11-23T06:11:57.628Z,2.72
2023-11-23T06:12:59.935Z,2.50
2023-11-23T06:14:02.304Z,2.65
2023-11-23T06:15:05.875Z,3.53
2023-11-23T06:16:08.606Z,6.50
2023-11-23T06:17:11.866Z,2.67
2023-11-23T06:18:14.545Z,3.00
2023-11-23T06:19:17.730Z,3.63
2023-11-23T06:20:20.163Z,2.05
2023-11-23T06:21:23.067Z,3.47
2023-11-23T06:22:25.340Z,3.92
2023-11-23T06:23:27.781Z,3.38
2023-11-23T06:24:30.163Z,4.05
2023-11-23T06:25:32.593Z,3.00
2023-11-23T06:26:34.845Z,4.10
2023-11-23T06:27:37.305Z,4.30
2023-11-23T06:28:39.663Z,3.08
2023-11-23T06:29:42.165Z,2.73
2023-11-23T06:30:46.733Z,2.60
2023-11-23T06:31:51.593Z,3.13
2023-11-23T06:32:54.482Z,3.42
2023-11-23T06:33:56.847Z,2.83
2023-11-23T06:34:59.952Z,2.97
2023-11-23T06:36:02.291Z,5.38
2023-11-23T06:37:04.696Z,3.55
2023-11-23T06:38:07.364Z,3.22
2023-11-23T06:39:12.731Z,4.07
2023-11-23T06:40:15.787Z,3.00
2023-11-23T06:41:22.475Z,3.65
2023-11-23T06:42:24.876Z,4.00
2023-11-23T06:43:27.202Z,3.42
2023-11-23T06:44:29.537Z,3.72
2023-11-23T06:45:32.302Z,3.97
2023-11-23T06:46:34.601Z,5.50
2023-11-23T06:47:37.022Z,4.50
2023-11-23T06:48:39.248Z,4.13
2023-11-23T06:49:42.040Z,3.28
2023-11-23T06:50:45.600Z,3.90
2023-11-23T06:51:47.986Z,4.50
2023-11-23T06:52:50.365Z,4.22
2023-11-23T06:53:52.727Z,4.50
2023-11-23T06:54:54.992Z,3.40
2023-11-23T06:56:03.887Z,3.88
2023-11-23T06:57:06.475Z,3.95
2023-11-23T06:58:11.459Z,4.18
2023-11-23T06:59:13.934Z,3.70
2023-11-23T07:00:27.030Z,3.75
2023-11-23T07:01:29.499Z,3.60
2023-11-23T07:02:31.867Z,5.80
2023-11-23T07:03:35.339Z,4.10
2023-11-23T07:04:38.708Z,3.60
2023-11-23T07:05:41.102Z,3.55
2023-11-23T07:06:43.495Z,4.10
2023-11-23T07:07:45.817Z,3.70
2023-11-23T07:08:48.676Z,3.90
2023-11-23T07:09:51.221Z,5.60
2023-11-23T07:10:53.630Z,5.82
2023-11-23T07:11:56.092Z,5.20
2023-11-23T07:12:58.431Z,4.43
2023-11-23T07:14:02.045Z,4.30
2023-11-23T07:15:04.877Z,4.43
2023-11-23T07:16:07.698Z,5.30
2023-11-23T07:17:10.063Z,4.68
2023-11-23T07:18:13.051Z,6.53
2023-11-23T07:19:16.168Z,4.72
2023-11-23T07:20:19.940Z,5.85
2023-11-23T07:21:23.183Z,4.20
2023-11-23T07:22:25.957Z,7.17
2023-11-23T07:23:28.370Z,5.05
2023-11-23T07:24:30.788Z,4.30
2023-11-23T07:25:33.521Z,4.07
2023-11-23T07:26:35.836Z,5.55
2023-11-23T07:27:39.168Z,4.22
2023-11-23T07:28:41.625Z,4.75
2023-11-23T07:29:44.067Z,5.32
2023-11-23T07:30:46.435Z,4.90
2023-11-23T07:31:50.393Z,5.53
2023-11-23T07:32:52.827Z,6.00
2023-11-23T07:33:55.271Z,4.50
2023-11-23T07:34:57.700Z,4.60
2023-11-23T07:35:59.978Z,4.40
2023-11-23T07:37:02.647Z,4.93
2023-11-23T07:38:05.098Z,4.72
2023-11-23T07:39:09.656Z,7.22
2023-11-23T07:40:15.846Z,4.60
2023-11-23T07:41:19.498Z,4.82
2023-11-23T07:42:21.859Z,4.72
2023-11-23T07:43:25.067Z,4.93
2023-11-23T07:44:29.398Z,4.25
2023-11-23T07:45:32.221Z,4.75
2023-11-23T07:46:34.672Z,4.50
2023-11-23T07:47:37.595Z,4.55
2023-11-23T07:48:40.066Z,4.57
2023-11-23T07:49:42.379Z,4.20
2023-11-23T07:50:44.745Z,4.45
2023-11-23T07:51:47.053Z,4.15
2023-11-23T07:52:49.433Z,4.45
2023-11-23T07:53:51.772Z,3.70
2023-11-23T07:54:54.424Z,3.47
2023-11-23T07:55:56.812Z,3.60
2023-11-23T07:56:59.372Z,4.00
2023-11-23T07:58:01.999Z,3.40
2023-11-23T07:59:04.333Z,4.28
2023-11-23T08:00:09.520Z,3.60
2023-11-23T08:01:12.405Z,4.32
2023-11-23T08:02:15.428Z,4.45
2023-11-23T08:03:18.011Z,3.42
2023-11-23T08:04:20.396Z,4.37
2023-11-23T08:05:22.917Z,3.47
2023-11-23T08:06:26.169Z,4.78
2023-11-23T08:07:28.447Z,4.25
2023-11-23T08:08:30.906Z,4.68
2023-11-23T08:09:33.338Z,3.20
2023-11-23T08:10:35.756Z,3.67
2023-11-23T08:11:38.086Z,4.95
2023-11-23T08:12:40.848Z,4.07
2023-11-23T08:13:43.181Z,4.22
2023-11-23T08:14:46.307Z,3.40
2023-11-23T08:15:48.582Z,3.53
2023-11-23T08:16:50.863Z,3.13
2023-11-23T08:17:58.888Z,4.25
2023-11-23T08:19:07.544Z,3.78
2023-11-23T08:20:11.741Z,4.13
2023-11-23T08:21:14.273Z,4.80
2023-11-23T08:22:20.000Z,3.83
2023-11-23T08:23:22.317Z,3.63
2023-11-23T08:24:24.661Z,3.38
2023-11-23T08:25:27.015Z,3.83
2023-11-23T08:26:29.684Z,3.55
2023-11-23T08:27:31.988Z,4.70
2023-11-23T08:28:34.892Z,4.68
2023-11-23T08:29:37.342Z,3.63
2023-11-23T08:30:40.299Z,3.47
2023-11-23T08:31:42.788Z,4.22
2023-11-23T08:32:45.172Z,4.05
2023-11-23T08:33:47.481Z,3.85
2023-11-23T08:34:50.237Z,9.02
2023-11-23T08:35:55.806Z,9.63
2023-11-23T08:36:59.218Z,3.78
2023-11-23T08:38:02.291Z,3.60
2023-11-23T08:39:06.595Z,4.32
2023-11-23T08:40:09.875Z,8.05
2023-11-23T08:41:12.646Z,3.83
2023-11-23T08:42:16.599Z,3.50
2023-11-23T08:43:20.356Z,3.35
2023-11-23T08:44:22.771Z,3.65
2023-11-23T08:45:26.171Z,3.42
2023-11-23T08:46:28.779Z,4.13
2023-11-23T08:47:31.223Z,3.30
2023-11-23T08:48:33.636Z,4.30
2023-11-23T08:49:36.021Z,3.17
2023-11-23T08:50:38.351Z,3.85
2023-11-23T08:51:41.119Z,3.47
2023-11-23T08:52:43.518Z,3.75
2023-11-23T08:53:45.810Z,3.25
2023-11-23T08:54:48.380Z,3.28
2023-11-23T08:55:52.165Z,3.00
2023-11-23T08:56:54.816Z,4.07
2023-11-23T08:57:57.240Z,3.00
2023-11-23T08:58:59.823Z,3.67
2023-11-23T09:00:02.943Z,2.65
2023-11-23T09:01:06.839Z,3.72
2023-11-23T09:02:19.470Z,4.28
2023-11-23T09:03:23.125Z,4.88
2023-11-23T09:04:33.113Z,4.85
2023-11-23T09:05:39.204Z,2.90
2023-11-23T09:06:42.004Z,3.30
2023-11-23T09:07:44.417Z,3.47
2023-11-23T09:08:46.784Z,2.95
2023-11-23T09:09:49.152Z,4.18
2023-11-23T09:10:53.557Z,4.55
2023-11-23T09:11:56.034Z,3.30
2023-11-23T09:12:58.437Z,3.30
2023-11-23T09:14:00.745Z,4.28
2023-11-23T09:15:06.208Z,4.32
2023-11-23T09:16:09.110Z,4.57
2023-11-23T09:17:11.493Z,3.65
2023-11-23T09:18:14.163Z,4.23
2023-11-23T09:19:16.662Z,3.38
2023-11-23T09:20:19.015Z,3.78
2023-11-23T09:21:21.355Z,5.45
2023-11-23T09:22:25.424Z,4.85
2023-11-23T09:23:28.899Z,4.13
2023-11-23T09:24:32.085Z,3.58
2023-11-23T09:25:35.432Z,3.63
2023-11-23T09:26:38.736Z,3.90
2023-11-23T09:27:41.182Z,4.25
2023-11-23T09:28:43.988Z,5.93
2023-11-23T09:29:46.734Z,5.15
2023-11-23T09:30:48.991Z,5.22
2023-11-23T09:31:53.053Z,4.10
2023-11-23T09:32:55.567Z,4.60
2023-11-23T09:33:58.093Z,4.10
2023-11-23T09:35:01.389Z,4.55
2023-11-23T09:36:04.157Z,3.92
2023-11-23T09:37:07.767Z,3.55
2023-11-23T09:38:10.301Z,5.13
2023-11-23T09:39:15.983Z,2.50
2023-11-23T09:40:19.600Z,3.10
2023-11-23T09:41:24.020Z,3.03
2023-11-23T09:42:28.345Z,2.88
2023-11-23T09:43:31.456Z,4.00
2023-11-23T09:44:37.649Z,2.72
2023-11-23T09:45:40.731Z,3.78
2023-11-23T09:46:45.685Z,3.78
2023-11-23T09:47:50.308Z,3.17
2023-11-23T09:48:54.781Z,4.30
2023-11-23T09:49:57.488Z,2.83
2023-11-23T09:50:59.834Z,2.95
2023-11-23T09:52:02.883Z,2.75
2023-11-23T09:53:06.219Z,3.70
2023-11-23T09:54:10.026Z,3.13
2023-11-23T09:55:12.497Z,3.22
2023-11-23T09:56:19.441Z,2.60
2023-11-23T09:57:22.495Z,2.83
2023-11-23T09:58:25.260Z,4.40
2023-11-23T09:59:28.693Z,2.70
2023-11-23T10:00:35.221Z,2.93
2023-11-23T10:01:44.850Z,2.80
2023-11-23T10:02:57.333Z,3.25
2023-11-23T10:04:01.479Z,3.28
2023-11-23T10:05:06.764Z,3.00
2023-11-23T10:06:09.378Z,3.42
2023-11-23T10:07:13.473Z,2.95
2023-11-23T10:08:18.140Z,2.45
2023-11-23T10:09:23.833Z,3.88
2023-11-23T10:10:28.657Z,3.75
2023-11-23T10:11:31.174Z,3.67
2023-11-23T10:12:34.813Z,3.00
2023-11-23T10:13:37.085Z,3.65
2023-11-23T10:14:41.182Z,2.80
2023-11-23T10:15:45.859Z,3.50
2023-11-23T10:16:48.215Z,4.25
2023-11-23T10:17:50.598Z,3.60
2023-11-23T10:18:54.930Z,3.42
2023-11-23T10:20:14.351Z,2.92
2023-11-23T10:21:16.779Z,3.33
2023-11-23T10:22:19.144Z,3.73
2023-11-23T10:23:22.755Z,3.13
2023-11-23T10:24:25.432Z,3.60
2023-11-23T10:25:37.108Z,2.67
2023-11-23T10:26:39.518Z,3.97
2023-11-23T10:27:41.766Z,2.88
2023-11-23T10:28:44.248Z,3.80
2023-11-23T10:29:48.193Z,6.05
2023-11-23T10:30:52.259Z,2.90
2023-11-23T10:31:56.453Z,2.80
2023-11-23T10:33:00.562Z,4.57
2023-11-23T10:34:04.993Z,2.75
2023-11-23T10:35:11.231Z,2.58
2023-11-23T10:36:14.750Z,3.30
2023-11-23T10:37:17.996Z,3.92
2023-11-23T10:38:32.429Z,3.67
2023-11-23T10:39:41.749Z,3.92
2023-11-23T10:40:46.891Z,3.38
2023-11-23T10:41:50.602Z,3.78
2023-11-23T10:42:53.688Z,4.43
2023-11-23T10:43:57.390Z,6.73
2023-11-23T10:45:00.550Z,3.78
2023-11-23T10:46:04.721Z,4.00
2023-11-23T10:47:08.898Z,3.88
2023-11-23T10:48:13.591Z,4.50
2023-11-23T10:49:17.582Z,4.25
2023-11-23T10:50:22.885Z,3.38
2023-11-23T10:51:28.624Z,3.72
2023-11-23T10:52:32.566Z,4.07
2023-11-23T10:53:34.959Z,3.22
2023-11-23T10:54:38.337Z,6.10
2023-11-23T10:55:40.761Z,4.43
2023-11-23T10:56:47.858Z,3.08
2023-11-23T10:57:57.468Z,3.58
2023-11-23T10:59:06.982Z,4.20
2023-11-23T11:00:18.012Z,3.17
2023-11-23T11:01:23.842Z,3.15
2023-11-23T11:02:27.245Z,3.28
2023-11-23T11:03:30.834Z,5.00
2023-11-23T11:04:33.275Z,3.33
2023-11-23T11:05:47.754Z,3.80
2023-11-23T11:06:55.706Z,4.78
2023-11-23T11:08:03.285Z,4.30
2023-11-23T11:09:16.083Z,6.75
2023-11-23T11:10:18.638Z,4.55
2023-11-23T11:11:26.307Z,3.30
2023-11-23T11:12:38.197Z,4.80
2023-11-23T11:13:44.586Z,5.47
2023-11-23T11:14:54.570Z,3.58
2023-11-23T11:16:08.403Z,2.92
2023-11-23T11:17:11.589Z,4.77
2023-11-23T11:18:14.385Z,4.47
2023-11-23T11:19:19.132Z,3.75
2023-11-23T11:20:23.729Z,4.22
2023-11-23T11:21:27.815Z,3.90
2023-11-23T11:22:31.704Z,4.55
2023-11-23T11:23:47.846Z,3.30
2023-11-23T11:24:59.183Z,5.20
2023-11-23T11:26:11.369Z,4.45
2023-11-23T11:27:14.209Z,3.60
2023-11-23T11:28:16.833Z,4.00
2023-11-23T11:29:19.506Z,3.80
2023-11-23T11:30:26.080Z,4.32
2023-11-23T11:31:36.809Z,3.70
2023-11-23T11:32:42.284Z,4.75
2023-11-23T11:33:44.694Z,5.72
2023-11-23T11:34:47.064Z,3.67
2023-11-23T11:35:49.467Z,3.65
2023-11-23T11:37:03.082Z,3.22
2023-11-23T11:38:06.323Z,3.53
2023-11-23T11:39:12.210Z,3.13
2023-11-23T11:40:17.186Z,4.97
2023-11-23T11:41:19.707Z,3.63
2023-11-23T11:42:22.497Z,3.00
2023-11-23T11:43:24.869Z,3.80
2023-11-23T11:44:30.725Z,3.80
2023-11-23T11:45:34.233Z,2.83
2023-11-23T11:46:36.920Z,3.20
2023-11-23T11:47:40.816Z,3.33
2023-11-23T11:48:43.359Z,3.42
2023-11-23T11:49:45.801Z,3.30
2023-11-23T11:50:58.130Z,2.90
2023-11-23T11:52:00.518Z,3.20
2023-11-23T11:53:02.934Z,5.35
2023-11-23T11:54:07.028Z,3.83
2023-11-23T11:55:09.578Z,4.40
2023-11-23T11:56:14.470Z,3.78
2023-11-23T11:57:19.724Z,3.95
2023-11-23T11:58:22.445Z,6.32
2023-11-23T11:59:30.201Z,4.60
2023-11-23T12:00:36.936Z,4.10
2023-11-23T12:01:40.520Z,3.40
2023-11-23T12:02:43.185Z,4.38
2023-11-23T12:03:49.432Z,3.28
2023-11-23T12:04:59.422Z,3.60
2023-11-23T12:06:05.561Z,4.22
2023-11-23T12:07:18.717Z,3.65
2023-11-23T12:08:21.372Z,3.33
2023-11-23T12:09:34.461Z,4.90
2023-11-23T12:10:42.095Z,4.32
2023-11-23T12:11:45.341Z,7.10
2023-11-23T12:12:49.324Z,3.88
2023-11-23T12:13:55.449Z,4.80
2023-11-23T12:14:58.371Z,3.97
2023-11-23T12:16:00.706Z,4.30
2023-11-23T12:17:14.170Z,5.40
2023-11-23T12:18:17.598Z,4.45
2023-11-23T12:19:21.481Z,5.30
2023-11-23T12:20:23.976Z,3.20
2023-11-23T12:21:26.503Z,3.95
2023-11-23T12:22:29.257Z,4.67
2023-11-23T12:23:40.137Z,5.05
2023-11-23T12:24:43.822Z,4.57
2023-11-23T12:25:49.653Z,4.03
2023-11-23T12:26:55.878Z,4.05
2023-11-23T12:27:58.221Z,4.07
2023-11-23T12:29:02.765Z,4.43
2023-11-23T12:30:06.367Z,3.60
2023-11-23T12:31:11.718Z,3.35
2023-11-23T12:32:14.106Z,4.43
2023-11-23T12:33:16.571Z,4.67
2023-11-23T12:34:21.499Z,4.38
2023-11-23T12:35:24.532Z,4.25
2023-11-23T12:36:27.703Z,3.88
2023-11-23T12:37:31.127Z,3.85
2023-11-23T12:38:33.595Z,4.47
2023-11-23T12:39:35.892Z,3.47
2023-11-23T12:40:38.266Z,4.82
2023-11-23T12:41:49.901Z,4.47
2023-11-23T12:42:57.062Z,3.97
2023-11-23T12:43:59.301Z,3.90
2023-11-23T12:45:03.469Z,4.60
2023-11-23T12:46:06.120Z,4.72
2023-11-23T12:47:08.640Z,6.63
2023-11-23T12:48:14.559Z,3.80
2023-11-23T12:49:17.358Z,3.58
2023-11-23T12:50:23.187Z,5.10
2023-11-23T12:53:37.791Z,5.45
2023-11-23T12:54:44.119Z,4.13
2023-11-23T12:55:46.782Z,6.53
2023-11-23T12:56:52.944Z,4.63
2023-11-23T12:57:58.451Z,5.35
2023-11-23T12:59:01.591Z,5.45
2023-11-23T13:00:06.395Z,3.63
2023-11-23T13:01:19.155Z,4.13
2023-11-23T13:02:24.495Z,4.22
2023-11-23T13:03:29.138Z,4.65
2023-11-23T13:04:39.143Z,3.97
2023-11-23T13:05:42.842Z,3.83
2023-11-23T13:06:45.535Z,3.53
2023-11-23T13:07:48.133Z,3.33
2023-11-23T13:08:57.415Z,6.20
2023-11-23T13:10:24.180Z,5.05
2023-11-23T13:11:41.509Z,8.55
2023-11-23T13:12:45.195Z,4.25
2023-11-23T13:13:55.072Z,3.67
2023-11-23T13:15:00.495Z,4.32
2023-11-23T13:16:06.128Z,4.35
2023-11-23T13:17:11.955Z,4.00
2023-11-23T13:18:16.939Z,4.17
2023-11-23T13:19:30.729Z,4.70
2023-11-23T13:20:46.355Z,3.65
2023-11-23T13:21:51.005Z,4.10
2023-11-23T13:22:56.322Z,4.65
2023-11-23T13:24:04.031Z,4.65
2023-11-23T13:25:07.697Z,5.50
2023-11-23T13:26:10.767Z,5.05
2023-11-23T13:27:16.078Z,4.00
2023-11-23T13:28:28.324Z,4.10
2023-11-23T13:29:33.902Z,6.13
2023-11-23T13:30:36.557Z,6.57
2023-11-23T13:31:45.454Z,4.90
2023-11-23T13:32:48.238Z,7.38
2023-11-23T13:33:51.332Z,6.13
2023-11-23T13:34:55.825Z,4.55
2023-11-23T13:36:02.753Z,4.75
2023-11-23T13:37:10.519Z,3.80
2023-11-23T13:38:16.507Z,4.50
2023-11-23T13:39:21.153Z,4.85
2023-11-23T13:40:24.702Z,3.73
2023-11-23T13:41:27.335Z,3.90
2023-11-23T13:42:29.929Z,4.35
2023-11-23T13:43:32.909Z,4.57
2023-11-23T13:44:37.972Z,4.90
2023-11-23T13:45:41.373Z,4.20
2023-11-23T13:46:45.671Z,4.25
2023-11-23T13:47:49.237Z,5.72
2023-11-23T13:48:52.725Z,6.97
2023-11-23T13:49:55.685Z,5.30
2023-11-23T13:50:58.567Z,4.57
2023-11-23T13:52:04.332Z,3.72
2023-11-23T13:53:07.198Z,5.22
2023-11-23T13:54:10.896Z,3.85
2023-11-23T13:55:13.351Z,4.57
2023-11-23T13:56:18.650Z,5.13
2023-11-23T13:57:23.517Z,5.47
2023-11-23T13:58:31.380Z,4.47
2023-11-23T13:59:37.931Z,5.60
2023-11-23T14:00:42.182Z,4.43
2023-11-23T14:01:45.239Z,4.10
2023-11-23T14:02:55.403Z,4.43
2023-11-23T14:04:02.501Z,4.18
2023-11-23T14:05:09.116Z,5.15
2023-11-23T14:06:13.764Z,4.03
2023-11-23T14:07:16.573Z,4.25
2023-11-23T14:08:21.601Z,4.00
2023-11-23T14:09:38.824Z,4.85
2023-11-23T14:10:41.363Z,5.50